createdAt,value
2019-05-12T00:02:07.584Z,10.48
2019-05-12T00:04:34.081Z,8.63
2019-05-12T00:07:00.792Z,14.83
2019-05-12T00:09:28.429Z,10.23
2019-05-12T00:11:55.348Z,13.72
2019-05-12T00:14:22.035Z,12.98
2019-05-12T00:16:49.183Z,16.67
2019-05-12T00:19:17.942Z,16.95
2019-05-12T00:21:44.628Z,11.25
2019-05-12T00:24:11.346Z,9.50
2019-05-12T00:26:38.649Z,12.30
2019-05-12T00:29:07.552Z,10.80
2019-05-12T00:31:34.203Z,13.25
2019-05-12T00:34:01.180Z,11.65
2019-05-12T00:36:29.269Z,12.07
2019-05-12T00:38:58.018Z,8.23
2019-05-12T00:41:24.770Z,17.05
2019-05-12T00:43:51.734Z,12.95
2019-05-12T00:46:18.538Z,14.60
2019-05-12T00:48:45.201Z,8.05
2019-05-12T00:51:11.939Z,15.38
2019-05-12T00:53:43.133Z,10.85
2019-05-12T00:56:08.450Z,13.65
2019-05-12T00:58:35.312Z,8.65
2019-05-12T01:01:22.704Z,13.20
2019-05-12T01:03:49.493Z,15.98
2019-05-12T01:06:17.793Z,14.95
2019-05-12T01:08:44.605Z,10.72
2019-05-12T01:11:12.664Z,10.58
2019-05-12T01:13:39.430Z,17.55
2019-05-12T01:16:08.088Z,15.63
2019-05-12T01:18:35.220Z,11.60
2019-05-12T01:21:01.918Z,17.70
2019-05-12T01:23:28.689Z,12.93
2019-05-12T01:25:58.292Z,11.10
2019-05-12T01:28:24.222Z,10.45
2019-05-12T01:30:53.005Z,14.85
2019-05-12T01:33:19.707Z,9.83
2019-05-12T01:35:48.308Z,9.63
2019-05-12T01:38:15.205Z,9.98
2019-05-12T01:40:41.897Z,19.90
2019-05-12T01:43:09.056Z,9.40
2019-05-12T01:45:37.985Z,12.55
2019-05-12T01:48:04.493Z,17.20
2019-05-12T01:50:31.269Z,12.88
2019-05-12T01:52:59.037Z,19.25
2019-05-12T01:55:28.073Z,10.55
2019-05-12T01:57:54.643Z,9.38
2019-05-12T02:00:21.666Z,13.32
2019-05-12T02:02:48.363Z,13.62
2019-05-12T02:05:15.148Z,10.65
2019-05-12T02:07:48.050Z,15.75
2019-05-12T02:10:17.817Z,14.30
2019-05-12T02:12:44.005Z,11.25
2019-05-12T02:15:10.817Z,9.80
2019-05-12T02:17:39.122Z,13.00
2019-05-12T02:20:07.868Z,11.00
2019-05-12T02:22:34.581Z,12.33
2019-05-12T02:25:01.360Z,13.50
2019-05-12T02:27:28.414Z,19.17
2019-05-12T02:30:13.030Z,16.73
2019-05-12T02:32:48.454Z,14.75
2019-05-12T02:35:08.801Z,14.53
2019-05-12T02:37:36.069Z,13.62
2019-05-12T02:40:06.898Z,10.32
2019-05-12T02:45:05.215Z,16.37
2019-05-12T02:47:34.461Z,11.65
2019-05-12T02:50:05.348Z,13.48
2019-05-12T02:52:34.724Z,17.40
2019-05-12T02:55:05.788Z,13.32
2019-05-12T02:57:34.351Z,11.33
2019-05-12T03:02:30.042Z,13.45
2019-05-12T03:05:19.777Z,13.07
2019-05-12T03:07:48.453Z,14.78
2019-05-12T03:10:15.319Z,14.90
2019-05-12T03:12:44.975Z,10.48
2019-05-12T03:15:14.853Z,10.32
2019-05-12T03:17:39.559Z,14.98
2019-05-12T03:20:06.447Z,14.90
2019-05-12T03:22:35.253Z,13.78
2019-05-12T03:25:13.396Z,15.48
2019-05-12T03:27:30.276Z,12.25
2019-05-12T03:29:56.860Z,14.53
2019-05-12T03:32:27.570Z,14.43
2019-05-12T03:34:57.365Z,11.40
2019-05-12T03:37:21.060Z,13.53
2019-05-12T03:39:47.925Z,16.62
2019-05-12T03:42:14.680Z,13.40
2019-05-12T03:44:44.449Z,11.93
2019-05-12T03:47:10.296Z,18.40
2019-05-12T03:49:37.047Z,14.00
2019-05-12T03:52:05.081Z,18.07
2019-05-12T03:54:34.962Z,10.08
2019-05-12T03:57:00.785Z,11.20
2019-05-12T03:59:27.483Z,14.43
2019-05-12T04:01:55.144Z,13.50
2019-05-12T04:04:24.471Z,10.18
2019-05-12T04:06:50.654Z,11.78
2019-05-12T04:09:17.216Z,11.12
2019-05-12T04:11:44.501Z,17.35
2019-05-12T04:14:14.515Z,11.68
2019-05-12T04:16:39.980Z,12.13
2019-05-12T04:19:06.670Z,17.82
2019-05-12T04:21:34.997Z,17.60
2019-05-12T04:24:05.061Z,17.98
2019-05-12T04:26:30.645Z,14.07
2019-05-12T04:28:57.230Z,11.80
2019-05-12T04:31:25.063Z,10.18
2019-05-12T04:33:54.725Z,15.75
2019-05-12T04:36:20.617Z,10.78
2019-05-12T04:38:47.410Z,11.12
2019-05-12T04:41:14.700Z,15.32
2019-05-12T04:43:44.539Z,10.03
2019-05-12T04:46:10.315Z,14.38
2019-05-12T04:48:36.885Z,14.13
2019-05-12T04:51:05.040Z,12.25
2019-05-12T04:53:34.928Z,7.22
2019-05-12T04:56:10.751Z,8.63
2019-05-12T04:58:29.233Z,8.45
2019-05-12T05:00:55.995Z,9.60
2019-05-12T05:03:24.709Z,10.58
2019-05-12T05:05:51.369Z,7.37
2019-05-12T05:08:19.754Z,10.65
2019-05-12T05:10:46.518Z,10.25
2019-05-12T05:13:14.974Z,10.80
2019-05-12T05:15:43.993Z,13.78
2019-05-12T05:18:10.374Z,13.38
2019-05-12T05:20:37.055Z,13.28
2019-05-12T05:23:03.935Z,12.47
2019-05-12T05:25:30.916Z,8.70
2019-05-12T05:27:57.684Z,10.18
2019-05-12T05:30:24.419Z,14.93
2019-05-12T05:32:51.034Z,10.10
2019-05-12T05:35:17.717Z,8.75
2019-05-12T05:37:44.430Z,11.05
2019-05-12T05:40:13.865Z,7.72
2019-05-12T05:42:39.902Z,7.53
2019-05-12T05:45:10.031Z,8.50
2019-05-12T05:47:35.486Z,10.38
2019-05-12T05:50:04.634Z,6.47
2019-05-12T05:52:38.516Z,6.78
2019-05-12T05:54:59.652Z,10.60
2019-05-12T05:57:29.755Z,6.45
2019-05-12T05:59:54.703Z,6.75
2019-05-12T06:02:23.163Z,10.78
2019-05-12T06:04:53.215Z,8.90
2019-05-12T06:07:23.912Z,7.28
2019-05-12T06:09:47.386Z,7.20
2019-05-12T06:12:14.215Z,9.23
2019-05-12T06:14:41.058Z,7.90
2019-05-12T06:17:07.778Z,10.95
2019-05-12T06:19:34.391Z,5.33
2019-05-12T06:22:04.032Z,5.30
2019-05-12T06:24:33.338Z,4.90
2019-05-12T06:27:00.723Z,6.78
2019-05-12T06:29:27.619Z,7.60
2019-05-12T06:31:54.378Z,7.75
2019-05-12T06:34:21.251Z,8.48
2019-05-12T06:36:47.822Z,5.97
2019-05-12T06:39:19.068Z,6.22
2019-05-12T06:41:44.413Z,4.50
2019-05-12T06:44:14.988Z,5.85
2019-05-12T06:46:39.960Z,4.78
2019-05-12T06:49:12.762Z,6.12
2019-05-12T06:51:35.300Z,5.40
2019-05-12T06:54:07.421Z,6.25
2019-05-12T06:56:30.636Z,10.80
2019-05-12T06:59:01.090Z,4.92
2019-05-12T07:01:25.913Z,4.75
2019-05-12T07:03:53.361Z,7.17
2019-05-12T07:06:20.381Z,4.87
2019-05-12T07:08:47.062Z,5.67
2019-05-12T07:11:14.310Z,4.80
2019-05-12T07:13:43.840Z,4.30
2019-05-12T07:16:16.668Z,7.00
2019-05-12T07:18:44.846Z,6.53
2019-05-12T07:21:17.845Z,6.20
2019-05-12T07:23:40.835Z,3.22
2019-05-12T07:26:17.599Z,8.50
2019-05-12T07:28:40.156Z,5.12
2019-05-12T07:31:04.871Z,4.75
2019-05-12T07:33:32.837Z,4.42
2019-05-12T07:36:05.824Z,4.42
2019-05-12T07:38:31.420Z,6.47
2019-05-12T07:41:00.738Z,5.08
2019-05-12T07:43:27.975Z,5.65
2019-05-12T07:46:02.167Z,5.72
2019-05-12T07:50:58.464Z,3.25
2019-05-12T07:53:20.285Z,5.33
2019-05-12T07:55:49.361Z,6.15
2019-05-12T07:58:19.208Z,4.00
2019-05-12T08:00:44.460Z,5.25
2019-05-12T08:03:16.025Z,4.20
2019-05-12T08:05:39.752Z,5.87
2019-05-12T08:08:10.689Z,2.95
2019-05-12T08:10:35.232Z,4.15
2019-05-12T08:13:04.098Z,5.28
2019-05-12T08:15:30.585Z,5.55
2019-05-12T08:17:59.527Z,3.42
2019-05-12T08:20:25.747Z,4.75
2019-05-12T08:22:54.144Z,3.22
2019-05-12T08:25:27.401Z,9.53
2019-05-12T08:27:51.969Z,2.33
2019-05-12T08:30:24.025Z,5.65
2019-05-12T08:32:56.351Z,4.00
2019-05-12T08:35:29.613Z,2.37
2019-05-12T08:37:48.309Z,2.37
2019-05-12T08:40:15.627Z,4.20
2019-05-12T08:42:43.673Z,4.97
2019-05-12T08:45:15.286Z,5.03
2019-05-12T08:47:39.492Z,6.58
2019-05-12T08:50:06.694Z,4.42
2019-05-12T08:52:37.248Z,9.18
2019-05-12T08:55:04.277Z,6.28
2019-05-12T08:57:32.581Z,5.28
2019-05-12T09:00:02.719Z,4.15
2019-05-12T09:02:28.188Z,4.60
2019-05-12T09:04:55.763Z,5.70
2019-05-12T09:07:24.279Z,2.65
2019-05-12T09:09:53.351Z,3.90
2019-05-12T09:12:23.347Z,3.90
2019-05-12T09:14:50.094Z,2.95
2019-05-12T09:17:16.775Z,4.20
2019-05-12T09:19:43.715Z,4.92
2019-05-12T09:22:20.404Z,4.97
2019-05-12T09:24:39.247Z,2.25
2019-05-12T09:27:08.806Z,3.10
2019-05-12T09:29:34.709Z,2.02
2019-05-12T09:32:07.359Z,1.62
2019-05-12T09:34:30.171Z,2.77
2019-05-12T09:36:59.532Z,3.83
2019-05-12T09:39:25.518Z,3.80
2019-05-12T09:41:54.813Z,1.85
2019-05-12T09:44:26.340Z,5.55
2019-05-12T09:46:49.408Z,4.33
2019-05-12T09:49:16.177Z,3.92
2019-05-12T09:51:45.774Z,7.05
2019-05-12T09:54:13.392Z,2.90
2019-05-12T09:56:41.299Z,3.50
2019-05-12T09:59:18.095Z,3.20
2019-05-12T10:01:39.687Z,3.58
2019-05-12T10:04:10.371Z,3.40
2019-05-12T10:06:35.376Z,4.00
2019-05-12T10:09:08.953Z,4.97
2019-05-12T10:11:33.212Z,4.80
2019-05-12T10:14:00.282Z,3.15
2019-05-12T10:16:28.492Z,3.10
2019-05-12T10:18:56.466Z,3.80
2019-05-12T10:21:23.770Z,2.45
2019-05-12T10:23:51.517Z,3.52
2019-05-12T10:26:41.219Z,3.87
2019-05-12T10:29:17.460Z,8.33
2019-05-12T10:31:39.371Z,4.85
2019-05-12T10:34:20.824Z,3.30
2019-05-12T10:36:49.150Z,2.45
2019-05-12T10:39:16.516Z,2.47
2019-05-12T10:41:44.442Z,4.17
2019-05-12T10:44:13.700Z,3.52
2019-05-12T10:46:42.373Z,3.05
2019-05-12T10:49:08.500Z,2.72
2019-05-12T10:51:35.182Z,2.98
2019-05-12T10:54:12.119Z,2.90
2019-05-12T10:56:31.426Z,2.75
2019-05-12T10:58:58.089Z,2.90
2019-05-12T11:01:24.785Z,3.72
2019-05-12T11:03:52.281Z,4.67
2019-05-12T11:06:19.204Z,1.32
2019-05-12T11:08:47.309Z,2.47
2019-05-12T11:11:15.587Z,3.47
2019-05-12T11:13:46.201Z,2.65
2019-05-12T11:16:14.005Z,3.17
2019-05-12T11:18:39.653Z,1.52
2019-05-12T11:21:06.246Z,2.98
2019-05-12T11:23:34.504Z,3.52
2019-05-12T11:26:03.721Z,3.25
2019-05-12T11:28:30.279Z,2.47
2019-05-12T11:30:58.919Z,2.70
2019-05-12T11:33:25.685Z,3.72
2019-05-12T11:35:54.153Z,3.15
2019-05-12T11:38:21.147Z,2.92
2019-05-12T11:40:47.838Z,3.40
2019-05-12T11:43:14.671Z,2.30
2019-05-12T11:45:41.420Z,2.92
2019-05-12T11:48:10.170Z,2.30
2019-05-12T11:50:40.362Z,1.52
2019-05-12T11:53:05.291Z,1.22
2019-05-12T11:55:34.669Z,5.65
2019-05-12T11:58:06.709Z,2.77
2019-05-12T12:00:33.460Z,2.83
2019-05-12T12:03:03.819Z,1.45
2019-05-12T12:05:28.447Z,1.85
2019-05-12T12:07:56.119Z,4.50
2019-05-12T12:10:23.474Z,1.40
2019-05-12T12:12:50.315Z,1.00
2019-05-12T12:15:20.297Z,1.02
2019-05-12T12:17:45.910Z,3.98
2019-05-12T12:20:22.661Z,1.65
2019-05-12T12:22:46.461Z,1.67
2019-05-12T12:25:15.832Z,1.22
2019-05-12T12:27:44.288Z,2.27
2019-05-12T12:30:18.835Z,2.72
2019-05-12T12:32:40.908Z,1.07
2019-05-12T12:35:11.898Z,4.25
2019-05-12T12:37:36.388Z,1.92
2019-05-12T12:40:04.263Z,5.17
2019-05-12T12:42:36.980Z,2.08
2019-05-12T12:45:04.251Z,1.10
2019-05-12T12:47:38.018Z,2.70
2019-05-12T12:49:59.709Z,1.80
2019-05-12T12:52:26.474Z,2.80
2019-05-12T12:54:54.326Z,2.05
2019-05-12T12:57:21.140Z,1.75
2019-05-12T12:59:52.842Z,3.45
2019-05-12T13:02:24.711Z,2.95
2019-05-12T13:04:53.731Z,2.27
2019-05-12T13:07:20.214Z,2.40
2019-05-12T13:09:46.806Z,3.47
2019-05-12T13:12:15.789Z,2.30
2019-05-12T13:14:44.346Z,4.08
2019-05-12T13:17:10.807Z,3.17
2019-05-12T13:19:37.419Z,2.75
2019-05-12T13:22:08.966Z,1.70
2019-05-12T13:24:33.614Z,1.07
2019-05-12T13:27:03.984Z,3.85
2019-05-12T13:29:38.177Z,3.67
2019-05-12T13:31:59.680Z,3.62
2019-05-12T13:34:28.882Z,1.65
2019-05-12T13:36:55.019Z,1.95
2019-05-12T13:39:24.113Z,1.65
2019-05-12T13:41:56.251Z,4.70
2019-05-12T13:44:19.388Z,1.55
2019-05-12T13:46:48.883Z,1.20
2019-05-12T13:49:14.694Z,2.10
2019-05-12T13:51:43.044Z,1.75
2019-05-12T13:54:10.100Z,1.92
2019-05-12T13:56:36.792Z,2.12
2019-05-12T13:59:04.194Z,4.30
2019-05-12T14:01:39.657Z,2.98
2019-05-12T14:03:59.860Z,4.70
2019-05-12T14:06:32.198Z,2.02
2019-05-12T14:08:55.272Z,4.15
2019-05-12T14:11:23.850Z,3.33
2019-05-12T14:13:50.616Z,13.48
2019-05-12T14:16:17.460Z,36.00
2019-05-12T14:18:44.428Z,64.30
2019-05-12T14:21:13.977Z,9.15
2019-05-12T14:23:43.468Z,9.55
2019-05-12T14:26:09.533Z,5.03
2019-05-12T14:28:39.576Z,5.03
2019-05-12T14:31:04.568Z,2.02
2019-05-12T14:33:35.724Z,3.25
2019-05-12T14:35:59.703Z,5.10
2019-05-12T14:38:29.687Z,1.72
2019-05-12T14:40:55.033Z,2.62
2019-05-12T14:43:23.971Z,2.75
2019-05-12T14:45:50.476Z,3.58
2019-05-12T14:48:17.252Z,2.27
2019-05-12T14:50:44.285Z,3.33
2019-05-12T14:53:11.061Z,1.20
2019-05-12T14:55:38.604Z,1.47
2019-05-12T14:58:09.140Z,2.12
2019-05-12T15:00:34.332Z,1.47
2019-05-12T15:03:05.509Z,3.05
2019-05-12T15:05:29.740Z,2.72
2019-05-12T15:08:00.216Z,2.15
2019-05-12T15:10:25.254Z,1.80
2019-05-12T15:12:54.200Z,2.30
2019-05-12T15:15:20.904Z,1.82
2019-05-12T15:17:47.676Z,1.57
2019-05-12T15:20:14.481Z,2.98
2019-05-12T15:22:45.216Z,1.00
2019-05-12T15:25:09.942Z,1.45
2019-05-12T15:27:44.768Z,1.37
2019-05-12T15:30:19.018Z,3.05
2019-05-12T15:32:34.954Z,3.60
2019-05-12T15:35:01.769Z,1.55
2019-05-12T15:37:28.933Z,1.65
2019-05-12T15:39:56.922Z,2.80
2019-05-12T15:42:23.760Z,2.87
2019-05-12T15:44:50.425Z,2.83
2019-05-12T15:47:17.254Z,4.35
2019-05-12T15:49:44.309Z,3.98
2019-05-12T15:52:14.019Z,4.03
2019-05-12T15:54:45.758Z,1.98
2019-05-12T15:57:08.747Z,3.25
2019-05-12T15:59:35.432Z,2.33
2019-05-12T16:02:12.333Z,3.60
2019-05-12T16:04:34.671Z,2.95
2019-05-12T16:06:59.395Z,4.85
2019-05-12T16:09:26.206Z,5.47
2019-05-12T16:11:52.894Z,3.58
2019-05-12T16:14:19.463Z,3.90
2019-05-12T16:16:47.129Z,3.35
2019-05-12T16:19:14.714Z,5.75
2019-05-12T16:21:45.322Z,4.97
2019-05-12T16:24:11.313Z,6.87
2019-05-12T16:26:42.991Z,4.60
2019-05-12T16:29:07.669Z,4.30
2019-05-12T16:31:39.362Z,4.53
2019-05-12T16:34:06.047Z,3.52
2019-05-12T16:36:33.715Z,2.80
2019-05-12T16:39:00.393Z,7.85
2019-05-12T16:41:29.785Z,1.70
2019-05-12T16:43:55.672Z,4.00
2019-05-12T16:46:23.524Z,5.12
2019-05-12T16:48:54.557Z,4.22
2019-05-12T16:51:19.061Z,3.55
2019-05-12T16:53:45.841Z,5.12
2019-05-12T16:56:14.768Z,4.75
2019-05-12T16:58:43.380Z,3.20
2019-05-12T17:01:09.765Z,5.70
2019-05-12T17:03:36.506Z,1.52
2019-05-12T17:06:03.661Z,8.68
2019-05-12T17:08:30.525Z,6.87
2019-05-12T17:11:15.157Z,4.00
2019-05-12T17:13:25.913Z,4.85
2019-05-12T17:15:55.388Z,3.55
2019-05-12T17:18:24.419Z,3.52
2019-05-12T17:20:51.139Z,3.10
2019-05-12T17:23:18.008Z,3.15
2019-05-12T17:25:44.683Z,2.37
2019-05-12T17:28:13.256Z,1.55
2019-05-12T17:30:40.118Z,6.25
2019-05-12T17:33:06.866Z,3.62
2019-05-12T17:35:34.836Z,3.30
2019-05-12T17:38:04.081Z,4.22
2019-05-12T17:40:30.586Z,4.05
2019-05-12T17:43:05.625Z,2.55
2019-05-12T17:45:26.096Z,2.15
2019-05-12T17:47:56.905Z,3.95
2019-05-12T17:50:21.331Z,2.50
2019-05-12T17:52:50.564Z,1.92
2019-05-12T17:55:16.759Z,3.35
2019-05-12T17:57:44.235Z,1.72
2019-05-12T18:00:11.332Z,3.85
2019-05-12T18:02:38.011Z,4.28
2019-05-12T18:05:07.674Z,4.22
2019-05-12T18:07:34.349Z,4.08
2019-05-12T18:10:01.188Z,1.37
2019-05-12T18:12:36.672Z,3.65
2019-05-12T18:14:56.546Z,2.87
2019-05-12T18:17:23.732Z,3.30
2019-05-12T18:19:59.044Z,5.65
2019-05-12T18:22:20.482Z,5.72
2019-05-12T18:24:50.745Z,5.05
2019-05-12T18:27:15.777Z,7.47
2019-05-12T18:29:44.168Z,4.70
2019-05-12T18:32:13.635Z,4.20
2019-05-12T18:34:39.955Z,5.15
2019-05-12T18:37:06.756Z,5.33
2019-05-12T18:39:34.400Z,2.95
2019-05-12T18:42:03.566Z,3.37
2019-05-12T18:44:31.604Z,3.45
2019-05-12T18:46:58.539Z,3.95
2019-05-12T18:49:25.228Z,4.12
2019-05-12T18:51:55.054Z,1.60
2019-05-12T18:54:20.727Z,3.58
2019-05-12T18:56:52.499Z,1.92
2019-05-12T18:59:16.536Z,6.85
2019-05-12T19:01:43.687Z,5.67
2019-05-12T19:04:10.584Z,7.53
2019-05-12T19:06:37.246Z,3.58
2019-05-12T19:09:06.526Z,6.75
2019-05-12T19:11:41.789Z,4.37
2019-05-12T19:14:04.192Z,5.20
2019-05-12T19:16:30.532Z,2.87
2019-05-12T19:18:57.405Z,4.47
2019-05-12T19:21:24.138Z,5.25
2019-05-12T19:23:50.722Z,9.08
2019-05-12T19:26:17.592Z,4.35
2019-05-12T19:28:52.951Z,6.45
2019-05-12T19:31:14.242Z,2.95
2019-05-12T19:33:44.016Z,3.67
2019-05-12T19:36:09.877Z,5.50
2019-05-12T19:38:36.953Z,9.53
2019-05-12T19:41:04.646Z,3.33
2019-05-12T19:43:33.849Z,2.75
2019-05-12T19:46:03.403Z,3.40
2019-05-12T19:48:28.962Z,3.30
2019-05-12T19:50:57.132Z,2.95
2019-05-12T19:53:24.213Z,7.30
2019-05-12T19:55:50.863Z,5.97
2019-05-12T19:58:17.573Z,5.33
2019-05-12T20:00:44.291Z,3.12
2019-05-12T20:03:13.686Z,6.40
2019-05-12T20:05:39.683Z,5.62
2019-05-12T20:08:06.442Z,4.62
2019-05-12T20:10:38.059Z,7.05
2019-05-12T20:13:03.937Z,6.70
2019-05-12T20:15:36.807Z,5.08
2019-05-12T20:17:59.492Z,3.37
2019-05-12T20:20:35.781Z,3.22
2019-05-12T20:22:54.849Z,5.37
2019-05-12T20:25:23.667Z,5.97
2019-05-12T20:27:56.141Z,8.50
2019-05-12T20:30:21.085Z,2.65
2019-05-12T20:32:47.640Z,4.05
2019-05-12T20:35:17.033Z,7.30
2019-05-12T20:37:53.123Z,7.53
2019-05-12T20:40:14.293Z,6.17
2019-05-12T20:42:44.189Z,7.28
2019-05-12T20:45:09.667Z,6.03
2019-05-12T20:47:39.054Z,3.45
2019-05-12T20:50:06.826Z,6.85
2019-05-12T20:52:34.203Z,2.37
2019-05-12T20:55:03.509Z,5.40
2019-05-12T20:57:29.660Z,5.75
2019-05-12T20:59:58.237Z,3.45
2019-05-12T21:02:28.273Z,3.92
2019-05-12T21:05:00.847Z,3.05
2019-05-12T21:07:26.828Z,5.83
2019-05-12T21:09:51.969Z,4.72
2019-05-12T21:12:24.065Z,6.37
2019-05-12T21:14:51.855Z,7.25
2019-05-12T21:17:19.153Z,3.60
2019-05-12T21:19:55.698Z,5.20
2019-05-12T21:22:14.545Z,6.05
2019-05-12T21:24:43.746Z,5.30
2019-05-12T21:27:17.916Z,9.98
2019-05-12T21:29:38.897Z,6.75
2019-05-12T21:32:12.290Z,4.17
2019-05-12T21:34:35.429Z,12.40
2019-05-12T21:37:04.635Z,9.18
2019-05-12T21:39:30.787Z,6.17
2019-05-12T21:41:57.545Z,5.65
2019-05-12T21:44:24.633Z,4.95
2019-05-12T21:46:59.412Z,6.22
2019-05-12T21:49:20.041Z,10.95
2019-05-12T21:51:50.387Z,4.25
2019-05-12T21:54:15.470Z,8.13
2019-05-12T21:56:44.722Z,6.42
2019-05-12T21:59:12.832Z,8.33
2019-05-12T22:01:45.511Z,9.73
2019-05-12T22:04:11.559Z,15.18
2019-05-12T22:06:40.279Z,7.28
2019-05-12T22:09:07.279Z,10.70
2019-05-12T22:11:42.237Z,13.53
2019-05-12T22:14:07.341Z,7.90
2019-05-12T22:16:43.281Z,15.10
2019-05-12T22:21:43.616Z,8.68
2019-05-12T22:24:06.224Z,4.60
2019-05-12T22:26:39.638Z,12.25
2019-05-12T22:29:01.250Z,9.18
2019-05-12T22:31:27.832Z,7.40
2019-05-12T22:33:56.385Z,13.85
2019-05-12T22:36:26.947Z,10.15
2019-05-12T22:39:00.524Z,9.68
2019-05-12T22:41:20.767Z,13.40
2019-05-12T22:43:47.453Z,13.68
2019-05-12T22:46:16.515Z,8.00
2019-05-12T22:48:45.243Z,4.85
2019-05-12T22:51:23.142Z,8.75
2019-05-12T22:53:40.716Z,8.18
2019-05-12T22:56:12.137Z,10.55
2019-05-12T22:58:35.994Z,6.75
2019-05-12T23:01:05.174Z,9.50
2019-05-12T23:03:31.585Z,11.33
2019-05-12T23:06:01.533Z,10.65
2019-05-12T23:08:26.651Z,9.75
2019-05-12T23:10:55.649Z,8.90
2019-05-12T23:13:23.828Z,12.13
2019-05-12T23:15:50.615Z,12.15
2019-05-12T23:18:25.229Z,11.15
2019-05-12T23:20:47.926Z,10.60
2019-05-12T23:23:18.707Z,9.98
2019-05-12T23:25:44.117Z,15.80
2019-05-12T23:28:11.084Z,13.58
2019-05-12T23:30:37.882Z,11.83
2019-05-12T23:33:04.585Z,10.48
2019-05-12T23:35:37.761Z,9.00
2019-05-12T23:38:00.107Z,12.58
2019-05-12T23:40:26.882Z,10.25
2019-05-12T23:42:53.683Z,10.88
2019-05-12T23:45:20.483Z,13.55
2019-05-12T23:47:47.095Z,12.43
2019-05-12T23:50:14.348Z,16.73
2019-05-12T23:52:43.750Z,11.00
2019-05-12T23:55:10.232Z,13.75
2019-05-12T23:57:36.899Z,14.80
